Time;durP1;ratioP1;P1;durP2;ratioP2;P2;SDS_P1;SDS_P2;PMS_P1;PMS_P2;Temp;Humidity;BMP_temperature;BMP_pressure;BME280_temperature;BME280_humidity;BME280_pressure;Samples;Min_cycle;Max_cycle;Signal;HPM_P1;HPM_P2
2024/04/16 00:02:19;;;;;;;0.52;0.52;;;14.10;99.90;;;;;;5436014;26;20003;-82
2024/04/16 00:04:44;;;;;;;0.80;0.52;;;14.10;99.90;;;;;;5446215;26;19999;-82
2024/04/16 00:07:10;;;;;;;2.05;0.50;;;14.20;99.90;;;;;;5446530;26;20448;-82
2024/04/16 00:09:36;;;;;;;1.33;0.70;;;14.10;99.90;;;;;;5449572;26;20398;-82
2024/04/16 00:12:01;;;;;;;2.20;0.52;;;14.20;99.90;;;;;;5449410;26;19995;-82
2024/04/16 00:14:27;;;;;;;3.05;0.80;;;14.60;99.90;;;;;;5447000;26;20002;-82
2024/04/16 00:16:53;;;;;;;0.90;0.60;;;14.20;99.90;;;;;;5449896;26;19998;-82
2024/04/16 00:19:19;;;;;;;1.40;0.80;;;14.30;99.90;;;;;;5448080;26;20007;-83
2024/04/16 00:21:44;;;;;;;1.88;0.82;;;14.30;99.90;;;;;;5449235;26;20446;-82
2024/04/16 00:24:10;;;;;;;1.20;0.90;;;14.30;99.90;;;;;;5445418;26;19999;-82
2024/04/16 00:26:35;;;;;;;1.50;0.80;;;14.30;99.90;;;;;;5445003;26;19998;-82
2024/04/16 00:29:01;;;;;;;0.80;0.70;;;14.30;99.90;;;;;;5443914;26;20450;-82
2024/04/16 00:31:27;;;;;;;0.73;0.65;;;14.30;99.90;;;;;;5444175;26;19999;-82
2024/04/16 00:33:52;;;;;;;2.17;0.88;;;14.30;99.90;;;;;;5442325;26;20002;-82
2024/04/16 00:36:18;;;;;;;1.13;0.55;;;14.30;99.90;;;;;;5445610;26;20071;-81
2024/04/16 00:38:44;;;;;;;1.02;0.90;;;14.30;99.90;;;;;;5442980;26;20011;-82
2024/04/16 00:41:09;;;;;;;0.90;0.60;;;14.30;99.90;;;;;;5444847;26;20010;-82
2024/04/16 00:43:35;;;;;;;1.00;0.47;;;14.30;99.90;;;;;;5444452;26;20006;-82
2024/04/16 00:46:02;;;;;;;2.50;0.65;;;14.30;99.90;;;;;;5443126;26;19995;-82
2024/04/16 00:48:28;;;;;;;0.93;0.60;;;14.20;99.90;;;;;;5461595;26;19990;-83
2024/04/16 00:50:56;;;;;;;1.85;0.60;;;14.10;99.90;;;;;;5454219;26;20042;-82
2024/04/16 00:53:23;;;;;;;1.65;0.88;;;14.10;99.90;;;;;;5453426;26;19999;-84
2024/04/16 00:55:50;;;;;;;2.45;0.40;;;14.10;99.90;;;;;;5451864;26;20031;-83
2024/04/16 00:58:18;;;;;;;0.98;0.68;;;14.20;99.90;;;;;;5454010;26;20010;-82
2024/04/16 01:00:47;;;;;;;0.77;0.60;;;14.20;99.90;;;;;;5451084;26;20002;-82
2024/04/16 01:03:12;;;;;;;1.02;1.02;;;14.20;99.90;;;;;;5450637;26;20298;-82
2024/04/16 01:05:40;;;;;;;1.55;1.10;;;14.20;99.90;;;;;;5449549;26;20711;-83
2024/04/16 01:08:08;;;;;;;1.23;0.80;;;14.10;99.90;;;;;;5448394;26;20432;-82
2024/04/16 01:10:41;;;;;;;1.45;0.95;;;14.20;99.90;;;;;;5451938;26;20453;-82
2024/04/16 01:13:07;;;;;;;2.90;0.77;;;14.40;99.90;;;;;;5447748;26;19998;-82
2024/04/16 01:15:33;;;;;;;3.00;1.35;;;14.30;99.90;;;;;;5447898;26;20009;-83
2024/04/16 01:17:59;;;;;;;3.13;0.60;;;14.30;99.90;;;;;;5450770;26;20457;-82
2024/04/16 01:20:25;;;;;;;0.45;0.45;;;14.30;99.90;;;;;;5450203;26;20010;-82
2024/04/16 01:22:51;;;;;;;1.48;1.00;;;14.20;99.90;;;;;;5449531;26;19995;-83
2024/04/16 01:25:17;;;;;;;2.17;0.63;;;14.20;99.90;;;;;;5449543;26;19991;-83
2024/04/16 01:27:43;;;;;;;0.60;0.60;;;14.20;99.90;;;;;;5448697;26;19994;-82
2024/04/16 01:30:09;;;;;;;2.92;0.60;;;14.30;99.90;;;;;;5449713;26;19999;-82
2024/04/16 01:32:35;;;;;;;1.55;0.63;;;14.20;99.90;;;;;;5448542;26;20039;-82
2024/04/16 01:35:01;;;;;;;2.65;0.73;;;14.30;99.90;;;;;;5446013;26;19999;-82
2024/04/16 01:37:27;;;;;;;0.70;0.70;;;14.20;99.90;;;;;;5447760;26;20664;-83
2024/04/16 01:39:52;;;;;;;1.15;0.63;;;14.40;99.90;;;;;;5448564;26;20010;-82
2024/04/16 01:42:18;;;;;;;0.68;0.57;;;14.40;99.90;;;;;;5447910;26;20009;-82
2024/04/16 01:44:56;;;;;;;0.60;0.60;;;14.40;99.90;;;;;;5444599;26;19995;-82
2024/04/16 01:47:22;;;;;;;0.50;0.50;;;14.40;99.90;;;;;;5444751;26;20009;-83
2024/04/16 01:49:47;;;;;;;5.93;1.02;;;14.40;99.90;;;;;;5447485;26;19995;-82
2024/04/16 01:52:13;;;;;;;1.63;1.00;;;14.30;99.90;;;;;;5447615;26;20454;-82
2024/04/16 01:54:38;;;;;;;1.23;0.70;;;14.40;99.90;;;;;;5444652;26;19999;-82
2024/04/16 01:57:05;;;;;;;1.98;0.47;;;14.40;99.90;;;;;;5447479;26;19995;-82
2024/04/16 01:59:31;;;;;;;0.73;0.70;;;14.40;99.90;;;;;;5443964;26;20009;-82
2024/04/16 02:01:57;;;;;;;5.25;0.75;;;14.40;99.90;;;;;;5444232;26;20480;-83
2024/04/16 02:04:22;;;;;;;0.60;0.60;;;14.40;99.90;;;;;;5442412;26;20329;-82
2024/04/16 02:06:49;;;;;;;3.17;0.63;;;14.40;99.90;;;;;;5469658;21;20003;-77
2024/04/16 02:09:15;;;;;;;0.55;0.45;;;14.40;99.90;;;;;;5469599;26;19999;-76
2024/04/16 02:11:40;;;;;;;2.15;0.55;;;14.40;99.90;;;;;;5482158;26;20010;-76
2024/04/16 02:14:06;;;;;;;0.55;0.47;;;14.50;99.90;;;;;;5448489;26;20070;-76
2024/04/16 02:16:32;;;;;;;0.73;0.57;;;14.40;99.90;;;;;;5489837;26;20038;-76
2024/04/16 02:18:57;;;;;;;1.77;1.27;;;14.40;99.90;;;;;;5443787;26;20345;-76
2024/04/16 02:21:23;;;;;;;3.90;0.65;;;14.40;99.90;;;;;;5485360;26;19998;-77
2024/04/16 02:23:49;;;;;;;1.80;0.70;;;14.50;99.90;;;;;;5488249;26;20000;-76
2024/04/16 02:26:15;;;;;;;4.13;0.93;;;14.40;99.90;;;;;;5490520;26;20009;-76
2024/04/16 02:28:42;;;;;;;1.35;0.52;;;14.40;99.90;;;;;;5456668;26;20462;-75
2024/04/16 02:31:07;;;;;;;3.58;0.90;;;14.30;99.90;;;;;;5458174;26;20459;-77
2024/04/16 02:33:33;;;;;;;0.43;0.43;;;14.30;99.90;;;;;;5457310;26;19998;-76
2024/04/16 02:36:00;;;;;;;0.80;0.80;;;14.40;99.90;;;;;;5456723;26;20017;-77
2024/04/16 02:38:26;;;;;;;1.85;0.55;;;14.40;99.90;;;;;;5489627;26;20022;-76
2024/04/16 02:40:52;;;;;;;0.80;0.70;;;14.50;99.90;;;;;;5489078;26;20003;-76
2024/04/16 02:43:17;;;;;;;0.77;0.60;;;14.50;99.90;;;;;;5488706;26;20070;-74
2024/04/16 02:45:43;;;;;;;1.45;0.70;;;14.40;99.90;;;;;;5445413;26;19995;-77
2024/04/16 02:48:08;;;;;;;2.15;0.70;;;14.50;99.90;;;;;;5479612;26;20006;-76
2024/04/16 02:50:34;;;;;;;2.40;1.10;;;14.50;99.90;;;;;;5487976;26;20062;-77
2024/04/16 02:53:00;;;;;;;0.75;0.75;;;14.40;99.90;;;;;;5456091;26;20010;-75
2024/04/16 02:55:25;;;;;;;0.95;0.60;;;14.40;99.90;;;;;;5455529;26;20464;-76
2024/04/16 02:57:51;;;;;;;1.15;0.68;;;14.60;99.90;;;;;;5455645;26;20009;-75
2024/04/16 03:00:17;;;;;;;2.45;0.60;;;14.50;99.90;;;;;;5489786;26;19994;-77
2024/04/16 03:02:43;;;;;;;2.17;0.60;;;14.30;99.90;;;;;;5490357;26;19998;-76
2024/04/16 03:05:09;;;;;;;1.17;0.82;;;14.30;99.90;;;;;;5487776;26;20006;-76
2024/04/16 03:07:34;;;;;;;1.20;0.55;;;14.30;99.90;;;;;;5488147;26;20006;-76
2024/04/16 03:10:00;;;;;;;1.75;0.75;;;14.30;99.90;;;;;;5488303;26;20472;-75
2024/04/16 03:12:26;;;;;;;2.25;0.65;;;14.30;99.90;;;;;;5457583;26;20440;-77
2024/04/16 03:14:54;;;;;;;1.98;0.85;;;14.30;99.90;;;;;;5487440;26;19994;-76
2024/04/16 03:17:20;;;;;;;0.68;0.57;;;14.30;99.90;;;;;;5468394;26;20080;-75
2024/04/16 03:19:46;;;;;;;1.75;0.50;;;14.30;99.90;;;;;;5465863;26;20120;-74
2024/04/16 03:22:12;;;;;;;0.50;0.50;;;14.30;99.90;;;;;;5501103;26;19994;-75
2024/04/16 03:24:38;;;;;;;0.45;0.45;;;14.30;99.90;;;;;;5464537;26;19998;-75
2024/04/16 03:27:03;;;;;;;0.75;0.40;;;14.20;99.90;;;;;;5459062;26;20022;-77
2024/04/16 03:29:29;;;;;;;0.40;0.30;;;14.20;99.90;;;;;;5493382;26;19994;-75
2024/04/16 03:31:55;;;;;;;0.30;0.30;;;14.20;99.90;;;;;;5460377;26;19998;-76
2024/04/16 03:34:20;;;;;;;1.02;0.50;;;14.20;99.90;;;;;;5454384;26;20025;-75
2024/04/16 03:36:46;;;;;;;0.47;0.43;;;14.20;99.90;;;;;;5455347;26;19995;-75
2024/04/16 03:39:12;;;;;;;1.30;0.52;;;14.20;99.90;;;;;;5424674;26;19999;-75
2024/04/16 03:41:37;;;;;;;0.45;0.45;;;14.10;99.90;;;;;;5455684;26;20010;-77
2024/04/16 03:44:03;;;;;;;0.90;0.73;;;14.10;99.90;;;;;;5455113;26;19991;-75
2024/04/16 03:46:28;;;;;;;7.20;0.70;;;14.10;99.90;;;;;;5424346;26;20040;-76
2024/04/16 03:48:54;;;;;;;6.72;0.75;;;14.00;99.90;;;;;;5455354;26;20002;-77
2024/04/16 03:51:20;;;;;;;3.22;0.90;;;13.90;99.90;;;;;;5456701;26;20005;-76
2024/04/16 03:53:46;;;;;;;1.50;0.40;;;14.00;99.90;;;;;;5452908;26;19995;-77
2024/04/16 03:56:11;;;;;;;3.97;0.88;;;13.90;99.90;;;;;;5455843;26;20006;-76
2024/04/16 03:58:54;;;;;;;4.47;0.57;;;13.70;99.90;;;;;;5455849;26;20062;-76
2024/04/16 04:01:20;;;;;;;0.93;0.60;;;13.60;99.90;;;;;;5423990;26;19994;-77
2024/04/16 04:03:46;;;;;;;1.08;0.75;;;13.60;99.90;;;;;;5454434;26;20002;-76
2024/04/16 04:06:11;;;;;;;1.67;0.80;;;13.60;99.90;;;;;;5455368;26;19995;-78
2024/04/16 04:08:37;;;;;;;2.28;0.77;;;13.60;99.90;;;;;;5461723;26;20013;-76
2024/04/16 04:11:04;;;;;;;6.00;1.45;;;13.60;99.90;;;;;;5442349;26;20010;-76
2024/04/16 04:13:30;;;;;;;3.05;0.90;;;13.50;99.90;;;;;;5470852;26;19995;-76
2024/04/16 04:15:56;;;;;;;4.10;0.85;;;13.40;99.90;;;;;;5491173;26;20010;-76
2024/04/16 04:18:22;;;;;;;3.65;0.75;;;13.30;99.90;;;;;;5490767;26;20002;-76
2024/04/16 04:20:48;;;;;;;1.08;0.68;;;13.30;99.90;;;;;;5458738;26;20002;-77
2024/04/16 04:23:14;;;;;;;2.55;0.95;;;13.20;99.90;;;;;;5458968;26;20021;-76
2024/04/16 04:25:39;;;;;;;1.80;1.05;;;13.20;99.90;;;;;;5448133;26;20006;-77
2024/04/16 04:28:05;;;;;;;1.30;0.73;;;13.10;99.90;;;;;;5480186;26;20520;-77
2024/04/16 04:30:31;;;;;;;3.22;0.73;;;13.00;99.90;;;;;;5481660;26;19995;-76
2024/04/16 04:32:57;;;;;;;1.30;0.88;;;12.80;99.90;;;;;;5454207;26;19994;-76
2024/04/16 04:35:23;;;;;;;2.50;1.02;;;12.80;99.90;;;;;;5453354;26;20008;-77
2024/04/16 04:37:48;;;;;;;3.33;2.08;;;12.80;99.90;;;;;;5454182;26;20333;-77
2024/04/16 04:40:14;;;;;;;1.67;0.60;;;12.80;99.90;;;;;;5453306;26;20002;-76
2024/04/16 04:42:40;;;;;;;5.35;3.38;;;12.70;99.90;;;;;;5454765;26;20651;-77
2024/04/16 04:45:06;;;;;;;4.38;2.10;;;12.60;99.90;;;;;;5451985;26;19994;-77
2024/04/16 04:47:31;;;;;;;2.85;2.22;;;12.50;99.90;;;;;;5455069;26;19994;-77
2024/04/16 04:49:58;;;;;;;1.15;0.70;;;12.60;99.90;;;;;;5454910;26;20006;-77
2024/04/16 04:52:23;;;;;;;3.60;0.60;;;12.60;99.90;;;;;;5452065;26;19991;-76
2024/04/16 04:54:49;;;;;;;2.30;1.30;;;12.50;99.90;;;;;;5431342;26;20004;-77
2024/04/16 04:57:15;;;;;;;0.50;0.40;;;12.40;99.90;;;;;;5462123;26;19995;-79
2024/04/16 04:59:40;;;;;;;2.80;1.00;;;12.10;99.90;;;;;;5454664;26;20040;-77
2024/04/16 05:02:09;;;;;;;0.55;0.32;;;11.80;99.90;;;;;;5438554;26;20075;-76
2024/04/16 05:04:35;;;;;;;0.80;0.45;;;11.40;99.90;;;;;;5426323;26;19992;-78
2024/04/16 05:07:01;;;;;;;1.27;0.65;;;12.80;99.90;;;;;;5462484;26;20358;-77
2024/04/16 05:09:27;;;;;;;0.38;0.38;;;13.20;99.90;;;;;;5473252;26;19994;-76
2024/04/16 05:11:52;;;;;;;1.45;0.35;;;13.20;99.90;;;;;;5459327;26;19998;-77
2024/04/16 05:14:19;;;;;;;0.38;0.30;;;13.50;99.90;;;;;;5467333;26;20012;-77
2024/04/16 05:16:45;;;;;;;0.93;0.22;;;13.50;99.90;;;;;;5466335;26;19990;-76
2024/04/16 05:19:10;;;;;;;5.18;0.75;;;13.00;99.90;;;;;;5469851;26;20637;-77
2024/04/16 05:21:36;;;;;;;2.78;0.45;;;12.70;99.90;;;;;;5455051;26;20009;-77
2024/04/16 05:24:02;;;;;;;2.25;0.43;;;13.10;99.90;;;;;;5453946;26;19997;-77
2024/04/16 05:26:28;;;;;;;0.20;0.20;;;13.10;99.90;;;;;;5477036;26;20006;-76
2024/04/16 05:28:54;;;;;;;1.90;0.35;;;13.00;99.90;;;;;;5476258;26;19994;-75
2024/04/16 05:31:19;;;;;;;2.38;0.22;;;12.80;99.90;;;;;;5489698;26;19997;-75
2024/04/16 05:33:45;;;;;;;0.20;0.20;;;12.80;99.90;;;;;;5488832;26;20002;-77
2024/04/16 05:36:11;;;;;;;0.28;0.20;;;13.00;99.90;;;;;;5459094;26;20680;-77
2024/04/16 05:38:37;;;;;;;0.38;0.10;;;12.90;99.90;;;;;;5459501;26;20004;-77
2024/04/16 05:41:04;;;;;;;0.82;0.20;;;12.70;99.90;;;;;;5485894;26;19999;-76
2024/04/16 05:43:29;;;;;;;0.45;0.30;;;12.50;99.90;;;;;;5469680;26;20051;-77
2024/04/16 05:45:55;;;;;;;1.00;0.17;;;12.50;99.90;;;;;;5491216;26;19994;-77
2024/04/16 05:48:21;;;;;;;1.15;0.30;;;12.60;99.90;;;;;;5490875;26;20519;-77
2024/04/16 05:50:47;;;;;;;1.00;0.65;;;12.90;99.90;;;;;;5490092;26;19994;-77
2024/04/16 05:53:12;;;;;;;0.15;0.15;;;12.30;99.90;;;;;;5458726;26;20440;-77
2024/04/16 05:55:38;;;;;;;0.10;0.10;;;12.50;99.90;;;;;;5458567;26;20000;-77
2024/04/16 05:58:04;;;;;;;1.25;0.10;;;12.70;99.90;;;;;;5458732;26;19994;-77
2024/04/16 06:00:29;;;;;;;0.68;0.15;;;12.40;99.90;;;;;;5461507;26;20429;-77
2024/04/16 06:02:55;;;;;;;0.28;0.10;;;12.50;99.90;;;;;;5445964;26;20002;-77
2024/04/16 06:05:21;;;;;;;1.23;0.10;;;12.60;99.90;;;;;;5445993;26;20096;-77
2024/04/16 06:07:46;;;;;;;2.42;0.10;;;12.40;99.90;;;;;;5446531;26;20333;-77
2024/04/16 06:10:12;;;;;;;2.40;0.15;;;12.50;99.90;;;;;;5451455;26;20204;-76
2024/04/16 06:12:38;;;;;;;0.20;0.20;;;11.40;99.90;;;;;;5450422;26;20005;-76
2024/04/16 06:15:04;;;;;;;0.03;0.03;;;10.80;99.90;;;;;;5420144;26;20002;-78
2024/04/16 06:17:29;;;;;;;0.35;0.10;;;10.30;99.90;;;;;;5454118;26;20010;-77
2024/04/16 06:19:55;;;;;;;0.10;0.10;;;10.10;99.90;;;;;;5455680;26;19998;-77
2024/04/16 06:22:21;;;;;;;0.10;0.10;;;10.00;99.90;;;;;;5474036;26;20040;-77
2024/04/16 06:24:46;;;;;;;0.88;0.10;;;9.80;99.90;;;;;;5445545;26;19997;-76
2024/04/16 06:27:12;;;;;;;0.55;0.32;;;9.60;99.90;;;;;;5438720;26;19990;-76
2024/04/16 06:29:38;;;;;;;0.20;0.20;;;9.50;99.90;;;;;;5476183;26;19994;-77
2024/04/16 06:32:04;;;;;;;0.17;0.17;;;9.30;99.90;;;;;;5458447;26;20004;-77
2024/04/16 06:34:30;;;;;;;0.85;0.10;;;9.20;99.90;;;;;;5458052;26;20110;-76
2024/04/16 06:36:56;;;;;;;0.65;0.17;;;9.10;99.90;;;;;;5422760;26;20009;-77
2024/04/16 06:39:22;;;;;;;4.57;0.20;;;9.10;99.90;;;;;;5474992;26;20348;-77
2024/04/16 06:41:47;;;;;;;0.20;0.20;;;9.00;99.90;;;;;;5443387;26;19990;-77
2024/04/16 06:44:13;;;;;;;0.10;0.10;;;9.00;99.90;;;;;;5457639;26;20005;-77
2024/04/16 06:46:39;;;;;;;1.30;0.30;;;8.90;99.90;;;;;;5490035;26;20337;-76
2024/04/16 06:49:04;;;;;;;0.17;0.13;;;8.90;99.90;;;;;;5487529;26;20004;-77
2024/04/16 06:51:30;;;;;;;0.08;0.08;;;8.90;99.90;;;;;;5453122;26;20005;-77
2024/04/16 06:53:55;;;;;;;0.98;0.17;;;8.90;99.90;;;;;;5451976;26;19991;-77
2024/04/16 06:56:21;;;;;;;0.00;0.00;;;8.80;99.90;;;;;;5450578;26;20007;-77
2024/04/16 06:58:47;;;;;;;0.10;0.10;;;8.70;99.90;;;;;;5486634;26;19998;-77
2024/04/16 07:01:12;;;;;;;0.00;0.00;;;8.80;99.90;;;;;;5417870;26;20424;-76
2024/04/16 07:03:38;;;;;;;0.10;0.00;;;8.80;99.90;;;;;;5447166;26;20010;-74
2024/04/16 07:06:05;;;;;;;0.08;0.08;;;8.70;99.90;;;;;;5458755;26;19995;-74
2024/04/16 07:08:31;;;;;;;0.10;0.10;;;8.50;99.90;;;;;;5475093;26;19994;-75
2024/04/16 07:10:56;;;;;;;3.08;1.38;;;8.60;99.90;;;;;;5473529;26;20476;-74
2024/04/16 07:13:22;;;;;;;0.57;0.47;;;8.50;99.90;;;;;;5482466;26;20028;-73
2024/04/16 07:15:48;;;;;;;0.43;0.20;;;8.60;99.90;;;;;;5490220;26;20444;-74
2024/04/16 07:18:13;;;;;;;3.25;0.20;;;8.50;99.90;;;;;;5431098;26;20523;-74
2024/04/16 07:20:46;;;;;;;1.30;0.10;;;10.10;99.90;;;;;;5440377;26;20010;-74
2024/04/16 07:23:12;;;;;;;0.32;0.20;;;10.70;99.90;;;;;;5490655;26;20026;-74
2024/04/16 07:25:37;;;;;;;0.38;0.20;;;11.40;99.90;;;;;;5456927;26;20008;-74
2024/04/16 07:28:03;;;;;;;0.95;0.20;;;11.90;99.90;;;;;;5490570;26;19994;-74
2024/04/16 07:30:29;;;;;;;0.57;0.13;;;11.30;99.90;;;;;;5490218;26;20460;-74
2024/04/16 07:32:55;;;;;;;1.02;0.30;;;11.90;99.90;;;;;;5490224;26;20000;-73
2024/04/16 07:35:21;;;;;;;0.38;0.22;;;11.80;99.90;;;;;;5421601;26;20000;-73
2024/04/16 07:37:47;;;;;;;0.40;0.40;;;12.10;99.90;;;;;;5473593;26;19990;-73
2024/04/16 07:40:12;;;;;;;0.10;0.10;;;11.60;99.90;;;;;;5468793;26;20009;-73
2024/04/16 07:42:38;;;;;;;0.47;0.13;;;10.20;99.90;;;;;;5445095;26;20026;-73
2024/04/16 07:45:04;;;;;;;0.63;0.20;;;9.50;99.90;;;;;;5420812;26;20020;-74
2024/04/16 07:47:29;;;;;;;0.10;0.10;;;9.00;99.90;;;;;;5467831;26;19999;-73
2024/04/16 07:49:55;;;;;;;0.65;0.22;;;8.70;99.90;;;;;;5429657;26;20010;-73
2024/04/16 07:52:21;;;;;;;0.10;0.00;;;8.40;99.90;;;;;;5425645;26;20015;-74
2024/04/16 07:54:46;;;;;;;0.35;0.08;;;8.10;99.90;;;;;;5437262;26;20013;-74
2024/04/16 07:57:12;;;;;;;0.08;0.03;;;7.90;99.90;;;;;;5447827;26;20333;-74
2024/04/16 07:59:37;;;;;;;1.70;0.15;;;7.90;99.90;;;;;;5489579;26;20030;-74
2024/04/16 08:02:04;;;;;;;0.50;0.50;;;7.70;99.90;;;;;;5473696;26;20044;-74
2024/04/16 08:04:30;;;;;;;0.52;0.30;;;7.60;99.90;;;;;;5468607;26;19996;-74
2024/04/16 08:06:55;;;;;;;0.68;0.55;;;7.50;99.90;;;;;;5475319;26;19991;-74
2024/04/16 08:09:21;;;;;;;2.25;0.60;;;7.50;99.90;;;;;;5449998;26;20465;-74
2024/04/16 08:11:46;;;;;;;0.77;0.75;;;7.50;99.90;;;;;;5489396;26;20005;-75
2024/04/16 08:14:16;;;;;;;0.68;0.32;;;7.50;99.90;;;;;;5483493;26;19994;-74
2024/04/16 08:16:42;;;;;;;0.77;0.40;;;7.50;99.90;;;;;;5474763;26;20009;-74
2024/04/16 08:19:08;;;;;;;0.73;0.73;;;7.50;99.90;;;;;;5457627;26;20001;-74
2024/04/16 08:21:33;;;;;;;2.28;0.40;;;7.40;99.90;;;;;;5449868;26;20006;-74
2024/04/16 08:23:59;;;;;;;0.25;0.25;;;7.40;99.90;;;;;;5475735;26;20066;-74
2024/04/16 08:26:25;;;;;;;0.00;0.00;;;7.20;99.90;;;;;;5457606;26;20441;-73
2024/04/16 08:28:50;;;;;;;3.50;0.85;;;7.20;99.90;;;;;;5489626;26;20021;-73
2024/04/16 08:31:16;;;;;;;0.98;0.55;;;8.90;99.90;;;;;;5489710;26;20005;-72
2024/04/16 08:33:42;;;;;;;2.03;1.60;;;9.80;99.90;;;;;;5488662;26;19990;-73
2024/04/16 08:36:08;;;;;;;1.38;1.15;;;11.40;99.90;;;;;;5489616;26;20336;-73
2024/04/16 08:38:34;;;;;;;1.20;1.10;;;11.40;99.90;;;;;;5488750;26;19997;-73
2024/04/16 08:41:03;;;;;;;1.83;0.52;;;11.40;99.90;;;;;;5489325;26;20009;-73
2024/04/16 08:43:33;;;;;;;2.50;0.70;;;11.90;99.90;;;;;;5488827;26;20339;-73
2024/04/16 08:46:01;;;;;;;0.98;0.70;;;11.90;99.90;;;;;;5489633;26;20030;-71
2024/04/16 08:48:29;;;;;;;0.80;0.50;;;11.60;99.90;;;;;;5458631;26;20434;-74
2024/04/16 08:50:56;;;;;;;0.73;0.60;;;11.90;99.90;;;;;;5452495;26;20018;-73
2024/04/16 08:53:24;;;;;;;0.30;0.30;;;11.50;99.90;;;;;;5439344;26;20017;-71
2024/04/16 08:55:50;;;;;;;1.33;0.80;;;11.20;99.90;;;;;;5457225;26;19995;-73
2024/04/16 08:58:16;;;;;;;1.23;0.50;;;11.10;99.90;;;;;;5428969;26;19995;-76
2024/04/16 09:00:43;;;;;;;0.70;0.70;;;10.90;99.90;;;;;;5448065;26;19998;-77
2024/04/16 09:03:09;;;;;;;0.30;0.30;;;11.10;99.90;;;;;;5453932;26;19999;-76
2024/04/16 09:05:35;;;;;;;0.28;0.10;;;10.90;99.90;;;;;;5433455;26;20002;-73
2024/04/16 09:08:01;;;;;;;2.75;0.20;;;11.00;99.90;;;;;;5430430;26;20344;-76
2024/04/16 09:10:26;;;;;;;0.93;0.22;;;10.40;99.90;;;;;;5471654;26;19990;-76
2024/04/16 09:12:54;;;;;;;0.40;0.30;;;10.90;99.90;;;;;;5473380;26;19990;-76
2024/04/16 09:15:20;;;;;;;0.40;0.40;;;10.80;99.90;;;;;;5438122;26;19998;-76
2024/04/16 09:17:50;;;;;;;5.55;1.67;;;12.10;99.90;;;;;;5409130;26;20014;-76
2024/04/16 09:20:18;;;;;;;1.30;0.60;;;12.60;99.90;;;;;;5434588;26;20027;-76
2024/04/16 09:22:45;;;;;;;0.13;0.10;;;12.60;99.90;;;;;;5426674;26;20019;-76
2024/04/16 09:25:11;;;;;;;1.48;0.57;;;11.80;99.90;;;;;;5475079;26;20096;-76
2024/04/16 09:27:37;;;;;;;0.45;0.20;;;11.40;99.90;;;;;;5459808;26;19998;-76
2024/04/16 09:30:09;;;;;;;1.55;0.20;;;11.00;99.90;;;;;;5432319;26;20009;-77
2024/04/16 09:32:36;;;;;;;3.70;0.73;;;10.90;99.90;;;;;;5481072;26;20037;-76
2024/04/16 09:35:01;;;;;;;0.30;0.20;;;11.60;99.90;;;;;;5442966;26;20495;-76
2024/04/16 09:37:27;;;;;;;0.40;0.20;;;11.60;99.90;;;;;;5490167;26;19994;-78
2024/04/16 09:39:53;;;;;;;0.88;0.28;;;11.70;99.90;;;;;;5442929;26;20003;-76
2024/04/16 09:42:23;;;;;;;3.67;1.30;;;11.00;99.90;;;;;;5485293;26;20070;-76
2024/04/16 09:44:51;;;;;;;0.43;0.28;;;11.40;99.90;;;;;;5469688;26;20001;-75
2024/04/16 09:47:17;;;;;;;1.85;1.55;;;10.60;99.90;;;;;;5465134;26;20484;-75
2024/04/16 09:49:44;;;;;;;3.17;2.15;;;10.30;99.90;;;;;;5447651;26;20009;-76
2024/04/16 09:52:12;;;;;;;3.38;1.48;;;10.50;99.90;;;;;;5473995;26;20070;-75
2024/04/16 09:54:43;;;;;;;1.10;1.00;;;11.30;99.90;;;;;;5488646;26;19991;-76
2024/04/16 09:57:10;;;;;;;1.95;1.05;;;11.40;99.90;;;;;;5457122;26;20030;-75
2024/04/16 09:59:38;;;;;;;4.47;0.40;;;11.10;99.90;;;;;;5472564;26;20000;-76
2024/04/16 10:02:04;;;;;;;4.28;1.10;;;11.10;99.90;;;;;;5464273;26;20002;-75
2024/04/16 10:04:30;;;;;;;0.40;0.38;;;11.20;99.90;;;;;;5459696;26;20088;-76
2024/04/16 10:06:56;;;;;;;0.80;0.80;;;10.90;99.90;;;;;;5441915;26;20001;-76
2024/04/16 10:09:23;;;;;;;0.20;0.20;;;11.40;99.90;;;;;;5455991;26;19990;-76
2024/04/16 10:11:49;;;;;;;0.20;0.20;;;10.70;99.90;;;;;;5488409;26;20340;-76
2024/04/16 10:14:15;;;;;;;1.83;1.10;;;10.70;99.90;;;;;;5487168;26;19990;-76
2024/04/16 10:16:41;;;;;;;0.95;0.68;;;11.30;99.90;;;;;;5488187;26;20063;-78
2024/04/16 10:19:07;;;;;;;14.80;7.35;;;11.50;99.90;;;;;;5488051;26;19993;-77
2024/04/16 10:21:39;;;;;;;15.25;13.68;;;11.20;99.90;;;;;;5487896;26;20062;-76
2024/04/16 10:24:10;;;;;;;2.28;2.13;;;10.60;99.90;;;;;;5454605;26;20006;-76
2024/04/16 10:26:47;;;;;;;1.67;1.33;;;10.00;99.90;;;;;;5487914;26;19994;-76
2024/04/16 10:29:26;;;;;;;0.73;0.73;;;10.00;99.90;;;;;;5437547;26;19992;-76
2024/04/16 10:31:54;;;;;;;0.13;0.13;;;10.10;99.90;;;;;;5477853;26;20072;-76
2024/04/16 10:34:20;;;;;;;0.40;0.40;;;10.10;99.90;;;;;;5478425;26;19998;-77
2024/04/16 10:36:47;;;;;;;1.42;1.33;;;10.30;99.90;;;;;;5487648;26;20039;-76
2024/04/16 10:39:13;;;;;;;1.88;1.77;;;10.80;99.90;;;;;;5479688;26;20009;-76
2024/04/16 10:41:53;;;;;;;0.90;0.50;;;10.90;99.90;;;;;;5454963;26;20047;-76
2024/04/16 10:44:22;;;;;;;0.10;0.10;;;11.10;99.90;;;;;;5419046;26;20453;-76
2024/04/16 10:46:51;;;;;;;0.43;0.13;;;10.50;99.90;;;;;;5451112;26;20027;-76
2024/04/16 10:49:22;;;;;;;0.25;0.25;;;10.40;99.90;;;;;;5419298;26;20009;-76
2024/04/16 10:51:50;;;;;;;1.25;1.15;;;10.60;99.90;;;;;;5470278;26;20011;-76
2024/04/16 10:54:16;;;;;;;0.40;0.40;;;10.50;99.90;;;;;;5467768;26;20000;-76
2024/04/16 10:56:42;;;;;;;0.20;0.20;;;10.40;99.90;;;;;;5463345;26;20064;-76
2024/04/16 10:59:09;;;;;;;0.63;0.52;;;10.40;99.90;;;;;;5466184;26;19995;-77
2024/04/16 11:01:46;;;;;;;0.22;0.20;;;10.20;99.90;;;;;;5477640;26;20350;-74
2024/04/16 11:04:13;;;;;;;1.58;0.32;;;9.90;99.90;;;;;;5471691;26;20448;-76
2024/04/16 11:06:40;;;;;;;0.28;0.28;;;10.70;99.90;;;;;;5487422;26;19998;-76
2024/04/16 11:09:07;;;;;;;0.20;0.10;;;11.30;99.90;;;;;;5455300;26;19998;-76
2024/04/16 11:11:34;;;;;;;0.10;0.10;;;10.80;99.90;;;;;;5487260;26;19994;-76
2024/04/16 11:14:00;;;;;;;0.28;0.28;;;10.20;99.90;;;;;;5477778;26;19995;-76
2024/04/16 11:16:28;;;;;;;1.45;0.80;;;10.60;99.90;;;;;;5455289;26;20442;-76
2024/04/16 11:18:55;;;;;;;0.52;0.50;;;10.30;99.90;;;;;;5447838;26;20471;-77
2024/04/16 11:21:21;;;;;;;0.38;0.38;;;9.90;99.90;;;;;;5461020;26;19996;-76
2024/04/16 11:23:48;;;;;;;0.15;0.15;;;9.50;99.90;;;;;;5422909;26;20010;-76
2024/04/16 11:26:14;;;;;;;0.10;0.10;;;9.30;99.90;;;;;;5433471;26;19999;-76
2024/04/16 11:28:41;;;;;;;1.65;0.30;;;9.20;99.90;;;;;;5436017;26;19994;-77
2024/04/16 11:31:07;;;;;;;0.10;0.10;;;9.10;99.90;;;;;;5465421;26;20021;-76
2024/04/16 11:33:34;;;;;;;0.20;0.10;;;8.90;99.90;;;;;;5477950;26;19998;-76
2024/04/16 11:36:10;;;;;;;2.90;0.20;;;9.30;99.90;;;;;;5455277;26;20390;-76
2024/04/16 11:38:36;;;;;;;0.35;0.15;;;10.10;99.90;;;;;;5470297;26;20452;-75
2024/04/16 11:41:03;;;;;;;1.55;0.17;;;10.40;99.90;;;;;;5473176;26;20006;-76
2024/04/16 11:43:38;;;;;;;0.52;0.15;;;10.60;99.90;;;;;;5486435;26;19995;-77
2024/04/16 11:46:07;;;;;;;0.10;0.10;;;10.60;99.90;;;;;;5486793;26;20022;-76
2024/04/16 11:48:34;;;;;;;0.52;0.22;;;10.20;99.90;;;;;;5436436;26;20002;-76
2024/04/16 11:51:00;;;;;;;0.40;0.10;;;10.10;99.90;;;;;;5453294;26;20513;-76
2024/04/16 11:53:26;;;;;;;0.25;0.25;;;10.20;99.90;;;;;;5453014;26;20003;-76
2024/04/16 11:55:51;;;;;;;0.20;0.20;;;10.60;99.90;;;;;;5453771;26;19999;-76
2024/04/16 11:58:17;;;;;;;2.38;0.20;;;10.60;99.90;;;;;;5422192;26;20088;-74
2024/04/16 12:00:43;;;;;;;0.30;0.10;;;10.60;99.90;;;;;;5455164;26;20007;-75
2024/04/16 12:03:08;;;;;;;0.20;0.10;;;10.70;99.90;;;;;;5425087;26;20372;-75
2024/04/16 12:05:34;;;;;;;0.17;0.17;;;10.10;99.90;;;;;;5424079;26;19998;-75
2024/04/16 12:08:00;;;;;;;0.32;0.28;;;9.90;99.90;;;;;;5474775;26;19999;-76
2024/04/16 12:10:27;;;;;;;0.40;0.10;;;10.20;99.90;;;;;;5468822;26;20018;-76
2024/04/16 12:12:54;;;;;;;0.10;0.10;;;9.90;99.90;;;;;;5489265;26;19998;-76
2024/04/16 12:15:19;;;;;;;1.45;0.20;;;10.40;99.90;;;;;;5472238;26;20445;-77
2024/04/16 12:17:45;;;;;;;0.22;0.10;;;10.00;99.90;;;;;;5469907;26;20075;-77
2024/04/16 12:20:11;;;;;;;0.50;0.13;;;10.00;99.90;;;;;;5428941;26;20002;-77
2024/04/16 12:22:37;;;;;;;0.57;0.17;;;9.70;99.90;;;;;;5478557;26;19994;-77
2024/04/16 12:25:03;;;;;;;0.20;0.20;;;10.30;99.90;;;;;;5456671;26;19991;-78
2024/04/16 12:27:28;;;;;;;0.28;0.10;;;10.00;99.90;;;;;;5453540;26;20372;-76
2024/04/16 12:29:54;;;;;;;0.52;0.10;;;9.80;99.90;;;;;;5474665;26;19994;-77
2024/04/16 12:32:20;;;;;;;0.10;0.10;;;9.60;99.90;;;;;;5487635;26;20009;-77
2024/04/16 12:34:45;;;;;;;0.15;0.15;;;9.40;99.90;;;;;;5451407;26;20003;-76
2024/04/16 12:37:11;;;;;;;0.28;0.10;;;10.00;99.90;;;;;;5475333;26;20340;-77
2024/04/16 12:39:37;;;;;;;2.35;0.10;;;9.60;99.90;;;;;;5461028;26;19995;-77
2024/04/16 12:42:03;;;;;;;0.38;0.10;;;9.20;99.90;;;;;;5421501;26;19999;-77
2024/04/16 12:44:29;;;;;;;0.17;0.17;;;9.30;99.90;;;;;;5444019;26;20010;-76